Airfield :
LOGIN :

Register | Disclaimer

   EN    FR    IT 

 










Legend :    VFR   Marginal VFR   IFR   Intensive IFR   Very Intensive IFR
Visi :
Ceiling :
>= 8 km
>= 3000ft
5 to 8 km
1000 to 3000 ft
1500m to 5 km
500 to 1000 ft
800 to 1500m
200 to 500 ft
< 800m
< 200 ft
Symbols :   Thunderstorms  Fog  Heavy snow  Heavy precipitations  Wind > 20 kt
SIGMETs :     Misc.  Thunderstorms  Icing  Turbulence  Mountain Waves  Volcanic Ashes







- Airport Elevation : 79 ft
- IATA code : SPU


LDSP - Split

CURRENT METAR :
  • 161700Z 31003KT 180V340 CAVOK 20/11 Q1020 NOSIG

EXPIRED METARs :
  • 161630Z VRB01KT CAVOK 21/12 Q1020 NOSIG
  • 161600Z 24005KT CAVOK 21/12 Q1020 NOSIG
  • 161530Z 24004KT CAVOK 22/12 Q1019 NOSIG
  • 161500Z 24005KT CAVOK 23/12 Q1019 NOSIG
  • 161430Z 24004KT 200V280 CAVOK 24/11 Q1019 NOSIG
  • 161400Z 24004KT 190V290 CAVOK 25/11 Q1019 NOSIG

TAF TAF LDSP
Valid from the 16 at 12:00 until the 17 at 12:00 UTC


161125Z 1612/1712 11004KT CAVOK TX24/1612Z TN15/1700Z
PROB30
TEMPO 1612/1614 23006KT
No reported NOTAMs for that airfield.



MET'MAP, your aeronautical weather chart ! - Copyright ORBIFLY December 2007 - Disclaimer

ORBIFLY MET'MAP TEAM :

Programming & Development : Alexandra Zaïnal
Concept & Development : Baudouin d'Aumeries
Co-Development & Prog : Marc-Olivier Méhu
Technical & hardware support : Manuel Goepfert

Contact : metmap@orbifly.com




SOURCES & CREDITS :

   NOAA